Time;durP1;ratioP1;P1;durP2;ratioP2;P2;SDS_P1;SDS_P2;PMS_P1;PMS_P2;Temp;Humidity;BMP_temperature;BMP_pressure;BME280_temperature;BME280_humidity;BME280_pressure;Samples;Min_cycle;Max_cycle;Signal;HPM_P1;HPM_P2
2022/01/23 00:01:07;;;;;;;11.57;4.67;;;1.60;99.90;;;;;;5046721;28;20215;-76
2022/01/23 00:03:56;;;;;;;9.07;4.50;;;1.60;99.90;;;;;;5041524;28;20377;-75
2022/01/23 00:06:49;;;;;;;13.40;5.03;;;1.60;99.90;;;;;;5043526;28;20231;-76
2022/01/23 00:09:40;;;;;;;11.13;4.70;;;1.60;99.90;;;;;;5058288;28;20227;-75
2022/01/23 00:12:33;;;;;;;10.60;4.60;;;1.60;99.90;;;;;;5057012;28;20689;-74
2022/01/23 00:18:28;;;;;;;14.20;5.73;;;1.50;99.90;;;;;;5039380;28;20212;-74
2022/01/23 00:21:17;;;;;;;11.63;4.63;;;1.50;99.90;;;;;;5046485;28;20255;-74
2022/01/23 00:30:25;;;;;;;11.43;5.00;;;1.40;99.90;;;;;;5050615;28;20228;-73
2022/01/23 00:33:15;;;;;;;14.27;5.70;;;1.50;99.90;;;;;;5072359;28;20240;-73
2022/01/23 00:36:06;;;;;;;10.07;4.57;;;1.50;99.90;;;;;;5059645;28;20224;-74
2022/01/23 00:38:55;;;;;;;12.20;4.63;;;1.40;99.90;;;;;;5045789;28;20228;-75
2022/01/23 00:41:43;;;;;;;13.33;5.23;;;1.40;99.90;;;;;;5060494;28;20225;-75
2022/01/23 00:44:36;;;;;;;9.80;5.10;;;1.30;99.90;;;;;;5057275;28;20426;-74
2022/01/23 00:47:25;;;;;;;10.67;5.10;;;1.40;99.90;;;;;;5063190;28;20223;-73
2022/01/23 00:50:14;;;;;;;17.63;5.67;;;1.30;99.90;;;;;;5074867;28;20224;-74
2022/01/23 00:53:08;;;;;;;13.43;5.73;;;1.30;99.90;;;;;;5054909;28;20925;-74
2022/01/23 00:55:58;;;;;;;13.63;5.17;;;1.40;99.90;;;;;;5057160;28;20216;-74
2022/01/23 00:58:47;;;;;;;10.63;4.93;;;1.40;99.90;;;;;;5034356;28;20224;-75
2022/01/23 01:01:38;;;;;;;15.23;5.53;;;1.40;99.90;;;;;;5050247;28;20261;-75
2022/01/23 01:04:28;;;;;;;13.87;5.57;;;1.40;99.90;;;;;;5062940;28;20220;-75
2022/01/23 01:07:17;;;;;;;12.87;5.20;;;1.50;99.90;;;;;;5062092;28;20235;-75
2022/01/23 01:10:10;;;;;;;11.27;4.60;;;1.40;99.90;;;;;;5058901;28;20224;-73
2022/01/23 01:13:01;;;;;;;12.67;5.20;;;1.50;99.90;;;;;;5047965;28;20315;-76
2022/01/23 01:16:12;;;;;;;11.00;4.87;;;1.50;99.90;;;;;;5064863;28;20212;-76
2022/01/23 01:31:40;;;;;;;14.00;4.80;;;1.50;99.90;;;;;;5062309;28;20218;-75
2022/01/23 01:34:37;;;;;;;11.70;4.80;;;1.50;99.90;;;;;;5062466;28;20215;-76
2022/01/23 01:37:25;;;;;;;13.37;4.90;;;1.60;99.90;;;;;;5070269;28;20232;-75
2022/01/23 01:40:15;;;;;;;13.83;4.60;;;1.50;99.90;;;;;;5057847;28;20776;-75
2022/01/23 01:43:04;;;;;;;13.63;5.30;;;1.50;99.90;;;;;;5049498;28;20377;-75
2022/01/23 01:46:20;;;;;;;14.57;5.50;;;1.50;99.90;;;;;;5050245;28;20209;-75
2022/01/23 01:49:15;;;;;;;13.10;5.20;;;1.50;99.90;;;;;;5051665;28;20227;-76
2022/01/23 01:52:06;;;;;;;12.40;4.77;;;1.50;99.90;;;;;;5047088;28;20307;-75
2022/01/23 01:55:01;;;;;;;11.30;5.40;;;1.40;99.90;;;;;;5045537;28;20242;-76
2022/01/23 01:58:02;;;;;;;10.93;5.07;;;1.30;99.90;;;;;;5057732;28;20223;-75
2022/01/23 02:11:06;;;;;;;14.87;5.10;;;1.40;99.90;;;;;;5059692;28;20239;-76
2022/01/23 02:14:07;;;;;;;14.20;5.40;;;1.40;99.90;;;;;;5055704;28;20235;-75
2022/01/23 02:17:15;;;;;;;16.30;5.07;;;1.40;99.90;;;;;;5057602;28;20672;-75
2022/01/23 02:23:32;;;;;;;10.80;4.57;;;1.50;99.90;;;;;;5006787;28;20708;-75
2022/01/23 02:52:15;;;;;;;11.33;5.13;;;1.40;99.90;;;;;;5051520;28;20233;-76
2022/01/23 02:55:12;;;;;;;12.70;5.63;;;1.40;99.90;;;;;;5045229;28;20240;-73
2022/01/23 02:58:05;;;;;;;9.33;4.70;;;1.50;99.90;;;;;;5057130;28;20219;-75
2022/01/23 03:01:08;;;;;;;16.73;5.13;;;1.60;99.90;;;;;;5050269;28;20215;-74
2022/01/23 03:04:22;;;;;;;11.27;5.33;;;1.50;99.90;;;;;;5059004;28;20394;-73
2022/01/23 03:07:51;;;;;;;12.03;4.57;;;1.40;99.90;;;;;;5057370;28;20216;-74
2022/01/23 03:10:44;;;;;;;16.47;5.60;;;1.30;99.90;;;;;;5063566;28;20313;-74
2022/01/23 03:13:45;;;;;;;12.50;4.83;;;1.40;99.90;;;;;;5057479;28;20917;-74
2022/01/23 03:26:14;;;;;;;10.57;5.07;;;1.60;99.90;;;;;;5053246;28;20226;-73
2022/01/23 03:32:19;;;;;;;13.10;4.93;;;1.60;99.90;;;;;;5073496;28;20256;-72
2022/01/23 03:35:08;;;;;;;14.03;5.10;;;1.60;99.90;;;;;;5067819;28;20295;-74
2022/01/23 03:37:58;;;;;;;11.43;5.53;;;1.60;99.90;;;;;;5065230;28;20222;-74
2022/01/23 03:40:47;;;;;;;13.47;4.97;;;1.70;99.90;;;;;;5054718;28;20227;-73
2022/01/23 03:43:38;;;;;;;12.23;4.80;;;1.60;99.90;;;;;;5055848;28;20742;-73
2022/01/23 03:46:48;;;;;;;12.57;5.20;;;1.60;99.90;;;;;;5062266;28;20211;-76
2022/01/23 03:49:39;;;;;;;17.43;5.07;;;1.60;99.90;;;;;;5040620;28;20224;-76
2022/01/23 03:52:48;;;;;;;12.77;5.10;;;1.70;99.90;;;;;;5073178;28;20255;-76
2022/01/23 03:55:39;;;;;;;11.93;4.87;;;1.50;99.90;;;;;;5042428;28;20247;-76
2022/01/23 03:58:27;;;;;;;12.17;4.83;;;1.60;99.90;;;;;;5050807;28;20257;-77
2022/01/23 04:01:17;;;;;;;9.13;4.70;;;1.60;99.90;;;;;;5051145;28;20328;-76
2022/01/23 04:04:22;;;;;;;15.03;4.60;;;1.60;99.90;;;;;;5046481;28;20677;-75
2022/01/23 04:07:15;;;;;;;11.20;4.40;;;1.60;99.90;;;;;;5071965;28;20750;-74
2022/01/23 04:10:05;;;;;;;12.43;4.70;;;1.70;99.90;;;;;;5054480;28;20236;-72
2022/01/23 04:13:00;;;;;;;10.50;4.87;;;1.60;99.90;;;;;;5047274;28;20363;-72
2022/01/23 04:15:53;;;;;;;12.67;4.70;;;1.50;99.90;;;;;;5062765;28;20235;-73
2022/01/23 04:34:27;;;;;;;9.97;4.60;;;1.40;99.90;;;;;;5079180;28;20219;-74
2022/01/23 04:47:15;;;;;;;13.47;4.80;;;1.60;99.90;;;;;;5052692;28;20856;-75
2022/01/23 04:59:35;;;;;;;12.47;4.90;;;1.70;99.90;;;;;;5071032;28;20238;-74
2022/01/23 05:02:54;;;;;;;12.30;4.87;;;1.70;99.90;;;;;;5057626;28;20212;-72
2022/01/23 05:06:02;;;;;;;13.60;5.47;;;1.70;99.90;;;;;;5039627;28;20777;-73
2022/01/23 05:09:08;;;;;;;11.97;5.60;;;1.60;99.90;;;;;;5022395;28;20303;-72
2022/01/23 05:12:12;;;;;;;15.13;5.27;;;1.70;99.90;;;;;;5044568;28;20224;-74
2022/01/23 05:15:02;;;;;;;15.77;5.23;;;1.60;99.90;;;;;;5051947;28;20334;-74
2022/01/23 05:17:51;;;;;;;13.43;5.47;;;1.60;99.90;;;;;;5043543;28;20225;-73
2022/01/23 05:20:41;;;;;;;11.87;5.00;;;1.50;99.90;;;;;;5062531;28;20219;-74
2022/01/23 05:23:30;;;;;;;14.53;5.17;;;1.50;99.90;;;;;;5064261;28;20215;-74
2022/01/23 05:26:18;;;;;;;12.80;5.40;;;1.50;99.90;;;;;;5073770;28;20220;-73
2022/01/23 05:29:07;;;;;;;12.87;5.50;;;1.50;99.90;;;;;;5058905;28;20227;-74
2022/01/23 05:31:57;;;;;;;13.53;5.37;;;1.50;99.90;;;;;;5053154;28;20254;-73
2022/01/23 05:34:45;;;;;;;10.80;5.40;;;1.70;99.90;;;;;;5057640;28;20215;-73
2022/01/23 05:37:41;;;;;;;14.37;5.47;;;1.70;99.90;;;;;;5069650;28;20219;-73
2022/01/23 05:40:34;;;;;;;12.97;5.40;;;1.70;99.90;;;;;;5056371;28;20905;-73
2022/01/23 05:43:24;;;;;;;15.07;5.10;;;1.70;99.90;;;;;;5063282;28;20250;-75
2022/01/23 05:46:13;;;;;;;11.90;5.20;;;1.70;99.90;;;;;;5060590;28;20215;-73
2022/01/23 05:49:18;;;;;;;14.83;5.93;;;1.60;99.90;;;;;;5063151;28;20227;-75
2022/01/23 05:52:27;;;;;;;12.83;5.57;;;1.40;99.90;;;;;;5063809;28;20599;-76
2022/01/23 05:55:25;;;;;;;13.40;5.40;;;1.60;99.90;;;;;;5063836;28;20223;-74
2022/01/23 05:58:23;;;;;;;13.53;4.53;;;1.50;99.90;;;;;;5061557;28;20219;-75
2022/01/23 06:01:13;;;;;;;12.93;6.00;;;1.30;99.90;;;;;;5056609;28;20234;-74
2022/01/23 06:04:02;;;;;;;15.37;5.53;;;1.30;99.90;;;;;;5064961;28;20928;-74
2022/01/23 06:07:07;;;;;;;14.13;5.60;;;1.60;99.90;;;;;;5067626;28;20310;-73
2022/01/23 06:09:59;;;;;;;13.67;5.60;;;1.70;99.90;;;;;;5065170;28;20251;-75
2022/01/23 06:12:48;;;;;;;11.80;5.20;;;1.60;99.90;;;;;;5080519;28;20704;-76
2022/01/23 06:15:36;;;;;;;12.47;5.13;;;1.60;99.90;;;;;;5069698;28;20227;-77
2022/01/23 06:18:25;;;;;;;13.87;5.23;;;1.40;99.90;;;;;;5068151;28;20357;-74
2022/01/23 06:21:33;;;;;;;14.70;5.47;;;1.40;99.90;;;;;;5077833;28;20211;-77
2022/01/23 06:24:59;;;;;;;14.37;4.87;;;1.60;99.90;;;;;;5068863;28;20599;-74
2022/01/23 06:27:50;;;;;;;10.90;5.33;;;1.60;99.90;;;;;;5084343;28;20227;-75
2022/01/23 06:30:39;;;;;;;11.13;4.80;;;1.70;99.90;;;;;;5075339;28;20227;-74
2022/01/23 06:33:29;;;;;;;9.00;4.80;;;1.70;99.90;;;;;;5049597;28;20357;-75
2022/01/23 06:36:18;;;;;;;8.80;4.30;;;1.70;99.90;;;;;;5065564;28;20718;-75
2022/01/23 06:39:11;;;;;;;8.47;3.93;;;1.40;99.90;;;;;;5064941;28;20227;-75
2022/01/23 06:42:02;;;;;;;9.20;4.20;;;1.30;99.90;;;;;;5062264;28;20235;-75
2022/01/23 06:44:58;;;;;;;10.27;4.17;;;1.40;99.90;;;;;;5060148;28;20554;-75
2022/01/23 06:47:47;;;;;;;9.93;4.40;;;1.30;99.90;;;;;;5061012;28;20227;-76
2022/01/23 06:50:35;;;;;;;8.90;4.17;;;1.20;99.90;;;;;;5063767;28;20227;-75
2022/01/23 06:53:24;;;;;;;9.50;3.90;;;1.40;99.90;;;;;;5067127;28;20284;-74
2022/01/23 06:56:13;;;;;;;6.73;3.23;;;1.30;99.90;;;;;;5067510;28;20605;-74
2022/01/23 06:59:03;;;;;;;8.57;3.97;;;1.20;99.90;;;;;;5053589;28;20219;-74
2022/01/23 07:01:52;;;;;;;8.07;3.60;;;1.20;99.90;;;;;;5078719;28;20221;-74
2022/01/23 07:05:00;;;;;;;7.63;3.60;;;1.20;99.90;;;;;;5080860;28;20224;-74
2022/01/23 07:08:01;;;;;;;7.73;4.03;;;1.20;99.90;;;;;;5064174;28;20225;-75
2022/01/23 07:11:02;;;;;;;9.97;4.07;;;1.20;99.90;;;;;;5058081;28;20215;-75
2022/01/23 07:14:16;;;;;;;9.50;3.90;;;1.00;99.90;;;;;;5057900;28;20235;-74
2022/01/23 07:17:17;;;;;;;10.13;4.13;;;1.20;99.90;;;;;;5055034;28;20227;-74
2022/01/23 07:20:11;;;;;;;8.00;3.80;;;1.20;99.90;;;;;;5082867;28;20365;-77
2022/01/23 07:23:00;;;;;;;9.50;3.27;;;1.10;99.90;;;;;;5072022;28;20216;-74
2022/01/23 07:25:49;;;;;;;7.73;3.87;;;1.00;99.90;;;;;;5046680;28;20225;-74
2022/01/23 07:28:41;;;;;;;6.77;3.30;;;1.20;99.90;;;;;;5069464;28;20219;-72
2022/01/23 07:34:38;;;;;;;7.57;3.43;;;1.00;99.90;;;;;;5065029;28;20225;-74
2022/01/23 07:37:29;;;;;;;10.67;4.60;;;1.00;99.90;;;;;;5050114;28;20445;-73
2022/01/23 07:40:37;;;;;;;20.53;8.97;;;1.10;99.90;;;;;;5076547;28;20234;-74
2022/01/23 07:43:32;;;;;;;11.87;5.57;;;1.10;99.90;;;;;;5064239;28;20702;-73
2022/01/23 07:46:41;;;;;;;9.50;4.90;;;1.20;99.90;;;;;;5078693;28;20220;-74
2022/01/23 07:49:36;;;;;;;7.07;2.97;;;1.20;99.90;;;;;;5066056;28;20373;-75
2022/01/23 07:52:35;;;;;;;6.93;3.23;;;1.20;99.90;;;;;;5065684;28;20384;-74
2022/01/23 07:55:37;;;;;;;8.13;3.67;;;1.00;99.90;;;;;;5068419;28;20215;-75
2022/01/23 07:58:54;;;;;;;9.70;3.80;;;1.10;99.90;;;;;;5073411;28;20226;-74
2022/01/23 08:02:00;;;;;;;7.33;3.70;;;1.30;99.90;;;;;;5064493;28;20306;-76
2022/01/23 08:05:17;;;;;;;7.67;3.40;;;1.40;99.90;;;;;;5079593;28;20301;-75
2022/01/23 08:08:29;;;;;;;5.73;3.20;;;1.10;99.90;;;;;;5060637;28;20329;-74
2022/01/23 08:11:26;;;;;;;6.87;3.10;;;1.40;99.90;;;;;;5034691;28;20232;-75
2022/01/23 08:14:15;;;;;;;5.20;2.70;;;1.40;99.90;;;;;;5057220;28;20212;-73
2022/01/23 08:17:05;;;;;;;6.63;3.80;;;1.20;99.90;;;;;;5056113;28;20227;-76
2022/01/23 08:19:55;;;;;;;6.57;3.03;;;1.10;99.90;;;;;;5042459;28;20217;-78
2022/01/23 08:22:44;;;;;;;7.70;3.10;;;1.00;99.90;;;;;;5057341;28;20227;-75
2022/01/23 08:25:34;;;;;;;5.47;3.00;;;1.00;99.90;;;;;;5062916;28;20227;-80
2022/01/23 08:28:22;;;;;;;5.30;3.20;;;1.20;99.90;;;;;;5069752;28;20219;-76
2022/01/23 08:31:11;;;;;;;6.60;3.47;;;1.40;99.90;;;;;;5063641;28;20225;-80
2022/01/23 08:34:01;;;;;;;6.77;3.37;;;1.50;99.90;;;;;;5075295;28;20615;-80
2022/01/23 08:36:50;;;;;;;6.70;4.07;;;1.70;99.90;;;;;;5063272;28;20234;-82
2022/01/23 08:39:40;;;;;;;9.73;4.90;;;1.40;99.90;;;;;;5036748;28;20318;-78
2022/01/23 08:42:29;;;;;;;11.60;5.63;;;1.20;99.90;;;;;;5045918;28;20361;-75
2022/01/23 08:45:18;;;;;;;8.30;4.33;;;1.10;99.90;;;;;;5047344;28;20221;-80
2022/01/23 08:48:07;;;;;;;31.67;16.23;;;1.10;99.90;;;;;;5063732;28;20224;-76
2022/01/23 08:50:57;;;;;;;8.53;4.03;;;1.10;99.90;;;;;;5045511;28;20220;-76
2022/01/23 08:53:49;;;;;;;4.30;2.73;;;1.00;99.90;;;;;;5039693;28;20226;-76
2022/01/23 08:56:38;;;;;;;5.63;2.57;;;0.90;99.90;;;;;;5055477;28;20225;-75
2022/01/23 08:59:27;;;;;;;7.23;2.73;;;0.80;99.90;;;;;;5045008;28;20224;-77
2022/01/23 09:02:16;;;;;;;7.50;3.17;;;1.00;99.90;;;;;;5046080;28;20216;-76
2022/01/23 09:05:09;;;;;;;6.53;2.83;;;1.00;99.90;;;;;;5046123;28;20220;-76
2022/01/23 09:08:00;;;;;;;5.57;3.50;;;1.00;99.90;;;;;;5042945;28;20224;-76
2022/01/23 09:10:55;;;;;;;11.70;6.63;;;1.20;99.90;;;;;;5056240;28;20744;-76
2022/01/23 09:13:54;;;;;;;6.90;4.10;;;1.30;99.90;;;;;;5054039;28;20254;-76
2022/01/23 09:16:45;;;;;;;7.07;3.30;;;1.20;99.90;;;;;;5038774;28;20219;-76
2022/01/23 09:19:34;;;;;;;4.30;2.80;;;1.00;99.90;;;;;;5038447;28;20287;-76
2022/01/23 09:22:24;;;;;;;5.63;2.83;;;1.10;99.90;;;;;;5058524;28;20220;-76
2022/01/23 09:25:14;;;;;;;6.20;3.40;;;0.80;99.90;;;;;;5045919;28;20231;-75
2022/01/23 09:28:05;;;;;;;6.17;3.27;;;0.70;99.90;;;;;;5040860;28;20744;-78
2022/01/23 09:31:00;;;;;;;8.13;3.67;;;0.70;99.90;;;;;;5051442;28;20311;-78
2022/01/23 09:33:49;;;;;;;6.43;3.70;;;0.80;99.90;;;;;;5041105;28;20224;-76
2022/01/23 09:36:39;;;;;;;9.03;4.20;;;0.60;99.90;;;;;;5049827;28;20227;-77
2022/01/23 09:39:30;;;;;;;6.27;3.43;;;0.80;99.90;;;;;;5044328;28;20212;-76
2022/01/23 09:42:23;;;;;;;8.77;3.43;;;0.70;99.90;;;;;;5041252;28;20230;-76
2022/01/23 09:45:14;;;;;;;8.77;3.77;;;0.90;99.90;;;;;;5041146;28;20370;-76
2022/01/23 09:48:04;;;;;;;7.87;3.87;;;0.80;99.90;;;;;;5045617;28;20247;-76
2022/01/23 09:50:53;;;;;;;7.03;3.70;;;0.90;99.90;;;;;;5066038;28;20756;-76
2022/01/23 09:53:47;;;;;;;7.27;4.07;;;0.90;99.90;;;;;;5061990;28;20224;-77
2022/01/23 09:56:37;;;;;;;6.00;3.80;;;0.90;99.90;;;;;;5056763;28;20222;-75
2022/01/23 09:59:28;;;;;;;5.90;3.60;;;0.80;99.90;;;;;;5066211;28;20226;-77
2022/01/23 10:02:17;;;;;;;6.60;3.03;;;0.80;99.90;;;;;;5037756;28;20211;-76
2022/01/23 10:05:07;;;;;;;5.73;2.97;;;0.60;99.90;;;;;;5044494;28;20228;-76
2022/01/23 10:07:59;;;;;;;7.03;3.23;;;0.60;99.90;;;;;;5036670;28;20220;-78
2022/01/23 10:10:52;;;;;;;7.10;3.50;;;0.60;99.90;;;;;;5042214;28;20232;-77
2022/01/23 10:13:43;;;;;;;5.13;2.73;;;0.80;99.90;;;;;;5031932;28;20286;-77
2022/01/23 10:16:34;;;;;;;6.03;3.37;;;0.50;99.90;;;;;;5034043;28;20242;-75
2022/01/23 10:19:23;;;;;;;6.03;3.03;;;0.70;99.90;;;;;;5058716;28;20829;-75
2022/01/23 10:22:12;;;;;;;6.87;3.50;;;0.60;99.90;;;;;;5075267;28;20225;-76
2022/01/23 10:25:07;;;;;;;7.17;4.07;;;0.70;99.90;;;;;;5051055;28;20230;-76
2022/01/23 10:28:03;;;;;;;8.83;3.90;;;0.50;99.90;;;;;;5077393;28;20698;-76
2022/01/23 10:30:55;;;;;;;6.30;3.43;;;0.60;99.90;;;;;;5061728;28;20249;-76
2022/01/23 10:33:50;;;;;;;6.67;3.83;;;0.50;99.90;;;;;;5066715;28;20228;-76
2022/01/23 10:36:53;;;;;;;8.43;4.03;;;0.60;99.90;;;;;;5075500;28;20240;-76
2022/01/23 10:39:44;;;;;;;6.77;4.07;;;0.60;99.90;;;;;;5059367;28;20730;-76
2022/01/23 10:48:56;;;;;;;7.30;3.97;;;0.70;99.90;;;;;;5109999;27;20284;-77
2022/01/23 10:51:50;;;;;;;8.50;4.00;;;0.70;99.90;;;;;;5094745;27;20226;-76
2022/01/23 10:54:39;;;;;;;7.23;3.70;;;0.70;99.90;;;;;;5090465;27;20218;-77
2022/01/23 10:57:36;;;;;;;10.03;3.87;;;0.80;99.90;;;;;;5099553;27;20256;-77
2022/01/23 11:00:26;;;;;;;7.13;4.10;;;0.70;99.90;;;;;;5085434;27;20276;-74
2022/01/23 11:03:19;;;;;;;7.57;4.07;;;0.60;99.90;;;;;;5093624;27;20229;-77
2022/01/23 11:06:14;;;;;;;8.37;4.00;;;0.60;99.90;;;;;;5092642;27;20231;-76
2022/01/23 11:09:09;;;;;;;9.07;4.13;;;0.60;99.90;;;;;;5093352;27;20228;-77
2022/01/23 11:12:13;;;;;;;7.13;4.03;;;0.70;99.90;;;;;;5095637;27;20223;-76
2022/01/23 11:18:13;;;;;;;7.50;4.03;;;0.50;99.90;;;;;;5099664;28;20231;-76
2022/01/23 11:21:14;;;;;;;8.47;4.53;;;0.70;99.90;;;;;;5102287;28;20231;-76
2022/01/23 11:24:04;;;;;;;9.83;5.27;;;0.90;99.90;;;;;;5100933;27;20231;-76
2022/01/23 11:27:01;;;;;;;14.90;6.20;;;1.00;99.90;;;;;;5098625;28;20225;-77
2022/01/23 11:29:56;;;;;;;15.13;6.00;;;1.10;99.90;;;;;;5114802;27;20921;-75
2022/01/23 11:32:45;;;;;;;9.87;5.20;;;1.20;99.90;;;;;;5091319;27;20228;-76
2022/01/23 11:35:33;;;;;;;9.80;4.77;;;1.30;99.90;;;;;;5117560;27;20215;-77
2022/01/23 11:38:24;;;;;;;8.70;4.80;;;1.20;99.90;;;;;;5133022;27;20207;-77
2022/01/23 11:53:54;;;;;;;8.37;4.47;;;1.00;99.90;;;;;;5098427;27;20225;-77
2022/01/23 11:56:46;;;;;;;8.67;4.47;;;1.80;99.90;;;;;;5114364;27;20318;-76
2022/01/23 12:00:05;;;;;;;7.27;4.20;;;1.30;99.90;;;;;;5104134;28;20797;-77
2022/01/23 12:03:13;;;;;;;10.63;4.87;;;1.20;99.90;;;;;;5102472;28;20234;-77
2022/01/23 12:06:12;;;;;;;8.07;4.93;;;1.20;99.90;;;;;;5100312;28;20234;-76
2022/01/23 12:09:18;;;;;;;10.97;4.93;;;1.20;99.90;;;;;;5098734;27;20215;-76
2022/01/23 12:12:22;;;;;;;9.40;4.20;;;1.10;99.90;;;;;;5104418;27;20635;-77
2022/01/23 12:18:29;;;;;;;7.70;4.50;;;1.00;99.90;;;;;;5100682;28;20218;-77
2022/01/23 12:21:28;;;;;;;7.97;4.40;;;1.40;99.90;;;;;;5090777;27;20226;-76
2022/01/23 12:24:19;;;;;;;10.00;5.10;;;1.70;99.90;;;;;;5082126;28;20219;-77
2022/01/23 12:27:18;;;;;;;10.57;5.83;;;1.30;99.90;;;;;;5102401;27;20222;-75
2022/01/23 12:30:33;;;;;;;9.47;5.07;;;1.30;99.90;;;;;;5103412;27;20211;-76
2022/01/23 12:33:48;;;;;;;8.80;4.77;;;1.30;99.90;;;;;;5096130;28;20229;-77
2022/01/23 12:36:40;;;;;;;9.37;5.43;;;1.40;99.90;;;;;;5089774;27;20223;-77
2022/01/23 12:39:30;;;;;;;9.60;5.77;;;1.30;99.90;;;;;;5086477;28;20248;-76
2022/01/23 12:42:19;;;;;;;11.47;6.00;;;1.40;99.90;;;;;;5103705;27;20218;-77
2022/01/23 12:45:43;;;;;;;13.93;6.60;;;1.40;99.90;;;;;;5089134;28;20222;-78
2022/01/23 12:48:40;;;;;;;9.67;5.33;;;1.20;99.90;;;;;;5087259;28;20225;-77
2022/01/23 12:51:41;;;;;;;9.97;5.63;;;1.20;99.90;;;;;;5092071;27;20226;-76
2022/01/23 12:54:33;;;;;;;9.87;5.10;;;1.10;99.90;;;;;;5082907;28;20241;-75
2022/01/23 12:57:31;;;;;;;9.93;5.43;;;1.10;99.90;;;;;;5089245;27;20210;-76
2022/01/23 13:00:25;;;;;;;10.63;5.53;;;1.20;99.90;;;;;;5089259;27;20307;-76
2022/01/23 13:03:13;;;;;;;10.43;5.63;;;1.20;99.90;;;;;;5093628;27;20661;-76
2022/01/23 13:06:06;;;;;;;9.73;5.50;;;1.40;99.90;;;;;;5111575;27;20987;-75
2022/01/23 13:09:14;;;;;;;7.60;4.60;;;1.40;99.90;;;;;;5081427;27;20729;-76
2022/01/23 13:12:07;;;;;;;8.00;5.13;;;1.40;99.90;;;;;;5085168;28;20215;-76
2022/01/23 13:15:12;;;;;;;9.30;5.20;;;1.30;99.90;;;;;;5088399;28;20252;-76
2022/01/23 13:18:12;;;;;;;9.60;5.50;;;1.30;99.90;;;;;;5099380;27;20225;-76
2022/01/23 13:28:00;;;;;;;10.90;5.93;;;1.40;99.90;;;;;;5042857;28;20739;-74
2022/01/23 13:30:46;;;;;;;10.83;6.33;;;1.20;99.90;;;;;;5103549;27;20219;-73
2022/01/23 13:33:39;;;;;;;12.37;5.73;;;1.20;99.90;;;;;;5107681;27;20239;-74
2022/01/23 13:36:27;;;;;;;13.07;6.33;;;1.30;99.90;;;;;;5112769;27;20225;-77
2022/01/23 13:39:23;;;;;;;10.20;6.40;;;1.40;99.90;;;;;;5098683;28;20717;-75
2022/01/23 13:42:46;;;;;;;12.43;6.80;;;1.50;99.90;;;;;;5102965;28;20230;-76
2022/01/23 13:52:01;;;;;;;10.87;5.87;;;1.30;99.90;;;;;;5101448;27;20223;-76
2022/01/23 13:58:31;;;;;;;12.33;5.90;;;1.30;99.90;;;;;;5092019;28;20219;-76
2022/01/23 14:01:45;;;;;;;13.30;5.97;;;1.20;99.90;;;;;;5098927;28;20229;-77
2022/01/23 14:04:38;;;;;;;14.30;6.00;;;1.30;99.90;;;;;;5097098;28;20308;-76
2022/01/23 14:07:28;;;;;;;12.57;6.33;;;1.20;99.90;;;;;;5086620;28;20237;-76
2022/01/23 14:10:19;;;;;;;10.90;5.87;;;1.10;99.90;;;;;;5100572;27;20218;-76
2022/01/23 14:13:10;;;;;;;10.87;5.83;;;1.20;99.90;;;;;;5102590;27;20222;-74
2022/01/23 14:15:59;;;;;;;10.90;5.97;;;1.20;99.90;;;;;;5122842;27;20347;-73
2022/01/23 14:18:49;;;;;;;10.63;5.20;;;1.10;99.90;;;;;;5086348;28;20920;-76
2022/01/23 14:21:42;;;;;;;10.63;5.83;;;1.00;99.90;;;;;;5082299;28;20222;-76
2022/01/23 14:24:33;;;;;;;14.57;6.67;;;1.00;99.90;;;;;;5086800;28;20222;-76
2022/01/23 14:27:22;;;;;;;11.60;6.70;;;1.00;99.90;;;;;;5099275;28;20229;-75
2022/01/23 14:30:15;;;;;;;12.40;6.07;;;1.10;99.90;;;;;;5119634;27;20234;-77
2022/01/23 14:33:13;;;;;;;13.90;6.77;;;1.00;99.90;;;;;;5105323;27;20225;-76
2022/01/23 14:36:15;;;;;;;11.00;6.63;;;1.10;99.90;;;;;;5122258;27;20226;-75
2022/01/23 14:39:07;;;;;;;13.33;7.40;;;1.10;99.90;;;;;;5105204;27;20253;-77
2022/01/23 14:41:55;;;;;;;12.60;6.13;;;1.20;99.90;;;;;;5109069;28;20300;-73
2022/01/23 14:44:45;;;;;;;14.37;7.23;;;1.10;99.90;;;;;;5109604;27;20237;-74
2022/01/23 14:47:36;;;;;;;14.57;7.27;;;1.00;99.90;;;;;;5097053;28;20216;-76
2022/01/23 14:50:26;;;;;;;13.93;7.37;;;0.90;99.90;;;;;;5103684;28;20563;-75
2022/01/23 14:53:19;;;;;;;13.23;7.03;;;1.00;99.90;;;;;;5115154;27;20244;-74
2022/01/23 14:56:14;;;;;;;13.47;7.40;;;1.00;99.90;;;;;;5108546;27;20217;-76
2022/01/23 14:59:04;;;;;;;14.83;7.07;;;0.90;99.90;;;;;;5100000;28;20670;-77
2022/01/23 15:01:54;;;;;;;13.87;7.53;;;0.90;99.90;;;;;;5091092;27;20222;-77
2022/01/23 15:04:46;;;;;;;16.00;7.53;;;0.90;99.90;;;;;;5122237;27;20236;-78
2022/01/23 15:07:36;;;;;;;14.53;7.13;;;0.90;99.90;;;;;;5106399;28;20236;-76
2022/01/23 15:10:27;;;;;;;14.70;7.37;;;0.90;99.90;;;;;;5107418;27;20218;-77
2022/01/23 15:13:16;;;;;;;13.63;7.40;;;0.90;99.90;;;;;;5105645;28;20765;-77
2022/01/23 15:16:06;;;;;;;16.80;7.83;;;0.90;99.90;;;;;;5093474;28;20253;-77
2022/01/23 15:18:54;;;;;;;12.37;7.47;;;0.90;99.90;;;;;;5097504;28;20900;-75
2022/01/23 15:21:43;;;;;;;18.20;7.80;;;0.90;99.90;;;;;;5096456;28;20294;-76
2022/01/23 15:24:32;;;;;;;14.93;7.17;;;0.90;99.90;;;;;;5110286;27;20213;-77
2022/01/23 15:27:22;;;;;;;15.00;7.43;;;0.80;99.90;;;;;;5121903;27;20218;-77
2022/01/23 15:30:13;;;;;;;19.23;8.03;;;0.80;99.90;;;;;;5105550;27;20213;-77
2022/01/23 15:33:03;;;;;;;15.10;8.13;;;0.80;99.90;;;;;;5105033;27;20214;-77
2022/01/23 15:35:52;;;;;;;17.20;8.07;;;0.80;99.90;;;;;;5099326;27;20766;-76
2022/01/23 15:38:44;;;;;;;15.73;7.63;;;0.90;99.90;;;;;;5137589;27;20218;-77
2022/01/23 15:41:33;;;;;;;14.73;7.70;;;1.00;99.90;;;;;;5124287;27;20217;-76
2022/01/23 15:44:23;;;;;;;15.57;8.13;;;0.90;99.90;;;;;;5138731;27;20237;-76
2022/01/23 15:47:11;;;;;;;12.97;7.13;;;1.00;99.90;;;;;;5109999;27;20222;-75
2022/01/23 15:50:00;;;;;;;12.13;7.57;;;1.00;99.90;;;;;;5109178;27;20222;-74
2022/01/23 15:52:50;;;;;;;14.47;7.30;;;1.00;99.90;;;;;;5108616;27;20218;-75
2022/01/23 15:55:39;;;;;;;15.90;7.73;;;1.00;99.90;;;;;;5109136;27;20232;-76
2022/01/23 15:58:28;;;;;;;16.00;7.90;;;1.10;99.90;;;;;;5108566;27;20210;-75
2022/01/23 16:01:18;;;;;;;14.90;7.57;;;1.00;99.90;;;;;;5111509;27;20221;-75
2022/01/23 16:04:08;;;;;;;18.13;7.67;;;0.90;99.90;;;;;;5104703;27;20298;-75
2022/01/23 16:06:58;;;;;;;17.23;7.87;;;0.80;99.90;;;;;;5108904;27;20229;-75
2022/01/23 16:09:47;;;;;;;15.43;7.70;;;0.90;99.90;;;;;;5112012;27;20220;-75
2022/01/23 16:12:37;;;;;;;18.70;7.70;;;0.90;99.90;;;;;;5123245;27;20218;-77
2022/01/23 16:15:26;;;;;;;20.47;7.83;;;0.90;99.90;;;;;;5121705;27;20894;-76
2022/01/23 16:18:20;;;;;;;17.17;7.33;;;1.00;99.90;;;;;;5122732;27;20225;-75
2022/01/23 16:21:09;;;;;;;17.97;7.73;;;0.90;99.90;;;;;;5122126;27;20326;-76
2022/01/23 16:23:58;;;;;;;20.03;7.93;;;0.90;99.90;;;;;;5109128;27;20222;-77
2022/01/23 16:26:54;;;;;;;19.53;8.07;;;0.80;99.90;;;;;;5105462;27;20738;-77
2022/01/23 16:29:43;;;;;;;14.53;7.50;;;0.80;99.90;;;;;;5099818;28;20252;-76
2022/01/23 16:32:32;;;;;;;16.40;8.30;;;0.60;99.90;;;;;;5103015;27;20237;-75
2022/01/23 16:35:22;;;;;;;15.03;8.30;;;0.70;99.90;;;;;;5088390;28;20211;-75
2022/01/23 16:38:12;;;;;;;17.90;8.43;;;0.70;99.90;;;;;;5108698;27;20728;-76
2022/01/23 16:41:02;;;;;;;23.30;9.67;;;0.80;99.90;;;;;;5124889;27;20732;-75
2022/01/23 16:43:51;;;;;;;17.07;8.90;;;0.80;99.90;;;;;;5109010;27;20425;-76
2022/01/23 16:46:41;;;;;;;20.60;8.37;;;0.80;99.90;;;;;;5112317;27;20658;-76
2022/01/23 16:49:50;;;;;;;20.27;8.60;;;0.80;99.90;;;;;;5109835;27;20218;-75
2022/01/23 16:52:40;;;;;;;16.13;8.27;;;0.70;99.90;;;;;;5106204;27;20297;-75
2022/01/23 16:55:29;;;;;;;20.53;10.03;;;0.60;99.90;;;;;;5100265;27;20219;-76
2022/01/23 16:58:17;;;;;;;19.83;9.37;;;0.70;99.90;;;;;;5116162;27;20225;-77
2022/01/23 17:01:07;;;;;;;19.90;9.53;;;0.80;99.90;;;;;;5107875;27;20209;-76
2022/01/23 17:03:56;;;;;;;25.77;9.30;;;0.80;99.90;;;;;;5120149;27;20715;-76
2022/01/23 17:06:51;;;;;;;19.70;10.10;;;0.70;99.90;;;;;;5122672;27;20670;-76
2022/01/23 17:09:41;;;;;;;23.27;9.47;;;0.70;99.90;;;;;;5105182;27;20222;-77
2022/01/23 17:12:29;;;;;;;22.03;10.57;;;0.90;99.90;;;;;;5108711;27;20218;-76
2022/01/23 17:15:18;;;;;;;26.00;10.53;;;0.90;99.90;;;;;;5119580;27;20210;-77
2022/01/23 17:18:08;;;;;;;26.20;10.67;;;0.90;99.90;;;;;;5098077;28;20283;-76
2022/01/23 17:20:56;;;;;;;25.07;11.10;;;0.90;99.90;;;;;;5101005;28;20211;-78
2022/01/23 17:23:45;;;;;;;24.93;12.13;;;0.90;99.90;;;;;;5101416;28;20222;-77
2022/01/23 17:26:36;;;;;;;23.27;12.13;;;0.90;99.90;;;;;;5101508;27;20329;-77
2022/01/23 17:29:25;;;;;;;26.03;11.60;;;0.90;99.90;;;;;;5105875;27;20211;-76
2022/01/23 17:32:15;;;;;;;26.43;12.83;;;1.00;99.90;;;;;;5110171;28;20223;-75
2022/01/23 17:35:24;;;;;;;26.50;12.60;;;1.00;99.90;;;;;;5099791;28;20207;-76
2022/01/23 17:38:12;;;;;;;28.67;13.23;;;0.80;99.90;;;;;;5105557;28;20211;-76
2022/01/23 17:41:01;;;;;;;25.83;12.63;;;0.90;99.90;;;;;;5100156;27;20222;-76
2022/01/23 17:43:51;;;;;;;26.27;11.87;;;0.90;99.90;;;;;;5098089;27;20219;-76